sensor_id;sensor_type;location;lat;lon;timestamp;P1;durP1;ratioP1;P2;durP2;ratioP2
50683;SDS011;36654;45.042;38.994;2022-09-09T00:04:22;15.35;;;8.00;;
50683;SDS011;36654;45.042;38.994;2022-09-09T00:09:40;14.43;;;7.82;;
50683;SDS011;36654;45.042;38.994;2022-09-09T00:12:39;12.07;;;7.53;;
50683;SDS011;36654;45.042;38.994;2022-09-09T00:15:41;18.70;;;7.68;;
50683;SDS011;36654;45.042;38.994;2022-09-09T00:21:08;14.20;;;7.20;;
50683;SDS011;36654;45.042;38.994;2022-09-09T00:23:38;15.02;;;8.32;;
50683;SDS011;36654;45.042;38.994;2022-09-09T00:26:09;14.27;;;8.05;;
50683;SDS011;36654;45.042;38.994;2022-09-09T00:29:10;14.20;;;8.52;;
50683;SDS011;36654;45.042;38.994;2022-09-09T00:31:50;14.48;;;7.95;;
50683;SDS011;36654;45.042;38.994;2022-09-09T00:34:23;15.90;;;8.18;;
50683;SDS011;36654;45.042;38.994;2022-09-09T00:36:52;13.15;;;7.70;;
50683;SDS011;36654;45.042;38.994;2022-09-09T00:39:41;17.25;;;8.40;;
50683;SDS011;36654;45.042;38.994;2022-09-09T00:42:15;12.60;;;7.78;;
50683;SDS011;36654;45.042;38.994;2022-09-09T00:44:56;13.05;;;7.90;;
50683;SDS011;36654;45.042;38.994;2022-09-09T00:55:54;14.77;;;8.38;;
50683;SDS011;36654;45.042;38.994;2022-09-09T00:58:27;16.85;;;8.38;;
50683;SDS011;36654;45.042;38.994;2022-09-09T01:00:56;14.70;;;7.93;;
50683;SDS011;36654;45.042;38.994;2022-09-09T01:03:35;12.45;;;8.32;;
50683;SDS011;36654;45.042;38.994;2022-09-09T01:14:02;15.77;;;8.70;;
50683;SDS011;36654;45.042;38.994;2022-09-09T01:16:56;13.15;;;8.45;;
50683;SDS011;36654;45.042;38.994;2022-09-09T01:28:01;12.52;;;8.60;;
50683;SDS011;36654;45.042;38.994;2022-09-09T01:30:32;13.40;;;8.80;;
50683;SDS011;36654;45.042;38.994;2022-09-09T01:32:59;17.85;;;8.25;;
50683;SDS011;36654;45.042;38.994;2022-09-09T01:38:19;13.77;;;8.20;;
50683;SDS011;36654;45.042;38.994;2022-09-09T01:40:45;14.55;;;8.43;;
50683;SDS011;36654;45.042;38.994;2022-09-09T01:43:11;12.30;;;8.40;;
50683;SDS011;36654;45.042;38.994;2022-09-09T01:45:38;17.25;;;8.35;;
50683;SDS011;36654;45.042;38.994;2022-09-09T01:48:06;12.85;;;8.43;;
50683;SDS011;36654;45.042;38.994;2022-09-09T01:50:32;15.57;;;8.25;;
50683;SDS011;36654;45.042;38.994;2022-09-09T01:52:58;13.57;;;8.10;;
50683;SDS011;36654;45.042;38.994;2022-09-09T01:55:45;12.32;;;7.85;;
50683;SDS011;36654;45.042;38.994;2022-09-09T01:58:31;17.52;;;9.02;;
50683;SDS011;36654;45.042;38.994;2022-09-09T02:04:01;17.30;;;8.40;;
50683;SDS011;36654;45.042;38.994;2022-09-09T02:06:35;16.05;;;8.65;;
50683;SDS011;36654;45.042;38.994;2022-09-09T02:09:06;14.77;;;8.48;;
50683;SDS011;36654;45.042;38.994;2022-09-09T02:11:35;15.98;;;8.35;;
50683;SDS011;36654;45.042;38.994;2022-09-09T02:14:06;17.17;;;8.95;;
50683;SDS011;36654;45.042;38.994;2022-09-09T02:16:40;16.85;;;8.73;;
50683;SDS011;36654;45.042;38.994;2022-09-09T02:19:10;13.48;;;7.90;;
50683;SDS011;36654;45.042;38.994;2022-09-09T02:21:41;13.82;;;8.05;;
50683;SDS011;36654;45.042;38.994;2022-09-09T02:24:09;18.55;;;8.20;;
50683;SDS011;36654;45.042;38.994;2022-09-09T02:26:39;13.15;;;8.60;;
50683;SDS011;36654;45.042;38.994;2022-09-09T02:29:08;16.95;;;8.68;;
50683;SDS011;36654;45.042;38.994;2022-09-09T02:31:41;15.68;;;9.40;;
50683;SDS011;36654;45.042;38.994;2022-09-09T02:34:09;15.27;;;8.65;;
50683;SDS011;36654;45.042;38.994;2022-09-09T02:36:37;16.50;;;8.73;;
50683;SDS011;36654;45.042;38.994;2022-09-09T02:39:06;18.23;;;8.77;;
50683;SDS011;36654;45.042;38.994;2022-09-09T02:41:34;15.65;;;8.63;;
50683;SDS011;36654;45.042;38.994;2022-09-09T02:44:01;14.25;;;8.38;;
50683;SDS011;36654;45.042;38.994;2022-09-09T02:54:31;14.98;;;8.57;;
50683;SDS011;36654;45.042;38.994;2022-09-09T02:57:01;12.65;;;8.07;;
50683;SDS011;36654;45.042;38.994;2022-09-09T02:59:35;14.00;;;9.32;;
50683;SDS011;36654;45.042;38.994;2022-09-09T03:02:01;18.73;;;11.30;;
50683;SDS011;36654;45.042;38.994;2022-09-09T03:04:27;19.83;;;12.50;;
50683;SDS011;36654;45.042;38.994;2022-09-09T03:06:53;21.52;;;12.80;;
50683;SDS011;36654;45.042;38.994;2022-09-09T03:09:19;23.80;;;12.02;;
50683;SDS011;36654;45.042;38.994;2022-09-09T03:11:45;18.42;;;10.98;;
50683;SDS011;36654;45.042;38.994;2022-09-09T03:14:10;19.90;;;11.40;;
50683;SDS011;36654;45.042;38.994;2022-09-09T03:16:36;18.10;;;10.63;;
50683;SDS011;36654;45.042;38.994;2022-09-09T03:19:02;13.98;;;8.90;;
50683;SDS011;36654;45.042;38.994;2022-09-09T03:21:28;14.75;;;8.07;;
50683;SDS011;36654;45.042;38.994;2022-09-09T03:23:54;14.23;;;8.20;;
50683;SDS011;36654;45.042;38.994;2022-09-09T03:26:20;12.15;;;7.47;;
50683;SDS011;36654;45.042;38.994;2022-09-09T03:28:46;15.07;;;8.93;;
50683;SDS011;36654;45.042;38.994;2022-09-09T03:31:12;14.18;;;8.48;;
50683;SDS011;36654;45.042;38.994;2022-09-09T03:33:37;16.45;;;9.10;;
50683;SDS011;36654;45.042;38.994;2022-09-09T03:36:04;17.25;;;8.52;;
50683;SDS011;36654;45.042;38.994;2022-09-09T03:38:30;15.25;;;9.23;;
50683;SDS011;36654;45.042;38.994;2022-09-09T03:40:57;21.38;;;9.80;;
50683;SDS011;36654;45.042;38.994;2022-09-09T03:43:25;16.67;;;9.65;;
50683;SDS011;36654;45.042;38.994;2022-09-09T03:45:52;15.48;;;9.77;;
50683;SDS011;36654;45.042;38.994;2022-09-09T03:48:22;18.70;;;9.13;;
50683;SDS011;36654;45.042;38.994;2022-09-09T03:50:49;17.90;;;9.55;;
50683;SDS011;36654;45.042;38.994;2022-09-09T03:53:16;18.65;;;9.52;;
50683;SDS011;36654;45.042;38.994;2022-09-09T03:55:44;18.23;;;10.52;;
50683;SDS011;36654;45.042;38.994;2022-09-09T03:58:12;16.95;;;9.95;;
50683;SDS011;36654;45.042;38.994;2022-09-09T04:00:43;17.02;;;9.40;;
50683;SDS011;36654;45.042;38.994;2022-09-09T04:03:17;14.90;;;9.13;;
50683;SDS011;36654;45.042;38.994;2022-09-09T04:05:43;17.73;;;8.93;;
50683;SDS011;36654;45.042;38.994;2022-09-09T04:08:09;17.63;;;9.77;;
50683;SDS011;36654;45.042;38.994;2022-09-09T04:10:35;18.98;;;9.68;;
50683;SDS011;36654;45.042;38.994;2022-09-09T04:13:03;15.82;;;9.80;;
50683;SDS011;36654;45.042;38.994;2022-09-09T04:15:31;15.95;;;9.35;;
50683;SDS011;36654;45.042;38.994;2022-09-09T04:17:58;16.20;;;8.45;;
50683;SDS011;36654;45.042;38.994;2022-09-09T04:20:23;14.35;;;8.43;;
50683;SDS011;36654;45.042;38.994;2022-09-09T04:22:49;12.88;;;8.63;;
50683;SDS011;36654;45.042;38.994;2022-09-09T04:25:15;14.25;;;8.27;;
50683;SDS011;36654;45.042;38.994;2022-09-09T04:27:40;13.65;;;8.57;;
50683;SDS011;36654;45.042;38.994;2022-09-09T04:30:08;12.70;;;7.50;;
50683;SDS011;36654;45.042;38.994;2022-09-09T04:32:34;13.55;;;8.13;;
50683;SDS011;36654;45.042;38.994;2022-09-09T04:35:00;13.63;;;8.07;;
50683;SDS011;36654;45.042;38.994;2022-09-09T04:37:26;13.98;;;7.60;;
50683;SDS011;36654;45.042;38.994;2022-09-09T04:39:52;18.67;;;8.40;;
50683;SDS011;36654;45.042;38.994;2022-09-09T04:42:17;11.50;;;7.95;;
50683;SDS011;36654;45.042;38.994;2022-09-09T04:44:44;16.30;;;8.38;;
50683;SDS011;36654;45.042;38.994;2022-09-09T04:47:10;16.40;;;8.35;;
50683;SDS011;36654;45.042;38.994;2022-09-09T04:49:36;14.65;;;8.63;;
50683;SDS011;36654;45.042;38.994;2022-09-09T04:52:02;14.13;;;8.32;;
50683;SDS011;36654;45.042;38.994;2022-09-09T04:54:28;16.25;;;8.68;;
50683;SDS011;36654;45.042;38.994;2022-09-09T04:56:54;15.05;;;8.88;;
50683;SDS011;36654;45.042;38.994;2022-09-09T04:59:20;15.07;;;8.45;;
50683;SDS011;36654;45.042;38.994;2022-09-09T05:01:47;13.93;;;8.65;;
50683;SDS011;36654;45.042;38.994;2022-09-09T05:04:13;13.23;;;8.10;;
50683;SDS011;36654;45.042;38.994;2022-09-09T05:06:41;15.70;;;8.77;;
50683;SDS011;36654;45.042;38.994;2022-09-09T05:09:07;16.90;;;8.73;;
50683;SDS011;36654;45.042;38.994;2022-09-09T05:11:34;15.38;;;8.85;;
50683;SDS011;36654;45.042;38.994;2022-09-09T05:14:03;16.50;;;8.77;;
50683;SDS011;36654;45.042;38.994;2022-09-09T05:16:29;14.18;;;8.50;;
50683;SDS011;36654;45.042;38.994;2022-09-09T05:18:55;14.02;;;8.65;;
50683;SDS011;36654;45.042;38.994;2022-09-09T05:21:22;14.48;;;8.18;;
50683;SDS011;36654;45.042;38.994;2022-09-09T05:23:53;18.48;;;8.65;;
50683;SDS011;36654;45.042;38.994;2022-09-09T05:26:20;15.00;;;8.18;;
50683;SDS011;36654;45.042;38.994;2022-09-09T05:28:47;15.77;;;8.30;;
50683;SDS011;36654;45.042;38.994;2022-09-09T05:31:13;12.82;;;8.35;;
50683;SDS011;36654;45.042;38.994;2022-09-09T05:33:41;15.93;;;8.70;;
50683;SDS011;36654;45.042;38.994;2022-09-09T05:36:12;12.98;;;8.65;;
50683;SDS011;36654;45.042;38.994;2022-09-09T05:38:44;18.30;;;9.38;;
50683;SDS011;36654;45.042;38.994;2022-09-09T05:41:14;14.88;;;7.75;;
50683;SDS011;36654;45.042;38.994;2022-09-09T05:43:48;12.98;;;6.88;;
50683;SDS011;36654;45.042;38.994;2022-09-09T05:46:20;10.15;;;5.80;;
50683;SDS011;36654;45.042;38.994;2022-09-09T05:48:47;11.05;;;7.50;;
50683;SDS011;36654;45.042;38.994;2022-09-09T05:51:21;18.67;;;11.90;;
50683;SDS011;36654;45.042;38.994;2022-09-09T05:53:49;11.35;;;7.07;;
50683;SDS011;36654;45.042;38.994;2022-09-09T05:56:17;13.80;;;7.60;;
50683;SDS011;36654;45.042;38.994;2022-09-09T05:58:50;11.67;;;6.77;;
50683;SDS011;36654;45.042;38.994;2022-09-09T06:01:21;14.00;;;7.18;;
50683;SDS011;36654;45.042;38.994;2022-09-09T06:03:52;14.52;;;7.03;;
50683;SDS011;36654;45.042;38.994;2022-09-09T06:06:30;14.35;;;7.80;;
50683;SDS011;36654;45.042;38.994;2022-09-09T06:08:58;13.27;;;7.28;;
50683;SDS011;36654;45.042;38.994;2022-09-09T06:11:27;12.50;;;7.57;;
50683;SDS011;36654;45.042;38.994;2022-09-09T06:13:57;18.00;;;7.25;;
50683;SDS011;36654;45.042;38.994;2022-09-09T06:16:24;12.57;;;6.80;;
50683;SDS011;36654;45.042;38.994;2022-09-09T06:18:51;10.35;;;6.78;;
50683;SDS011;36654;45.042;38.994;2022-09-09T06:21:20;12.05;;;6.10;;
50683;SDS011;36654;45.042;38.994;2022-09-09T06:23:47;11.93;;;6.18;;
50683;SDS011;36654;45.042;38.994;2022-09-09T06:26:16;9.38;;;5.22;;
50683;SDS011;36654;45.042;38.994;2022-09-09T06:28:47;9.75;;;5.28;;
50683;SDS011;36654;45.042;38.994;2022-09-09T06:31:18;11.25;;;4.72;;
50683;SDS011;36654;45.042;38.994;2022-09-09T06:33:51;8.85;;;5.65;;
50683;SDS011;36654;45.042;38.994;2022-09-09T06:36:26;9.05;;;4.72;;
50683;SDS011;36654;45.042;38.994;2022-09-09T06:38:53;9.52;;;4.68;;
50683;SDS011;36654;45.042;38.994;2022-09-09T06:41:19;9.07;;;4.97;;
50683;SDS011;36654;45.042;38.994;2022-09-09T06:43:46;10.07;;;5.13;;
50683;SDS011;36654;45.042;38.994;2022-09-09T06:48:40;13.10;;;5.60;;
50683;SDS011;36654;45.042;38.994;2022-09-09T06:53:33;11.38;;;5.07;;
50683;SDS011;36654;45.042;38.994;2022-09-09T06:56:17;14.27;;;5.35;;
50683;SDS011;36654;45.042;38.994;2022-09-09T06:58:48;10.07;;;5.22;;
50683;SDS011;36654;45.042;38.994;2022-09-09T07:01:16;9.73;;;4.85;;
50683;SDS011;36654;45.042;38.994;2022-09-09T07:03:48;9.32;;;5.03;;
50683;SDS011;36654;45.042;38.994;2022-09-09T07:06:24;10.30;;;5.63;;
50683;SDS011;36654;45.042;38.994;2022-09-09T07:08:53;13.35;;;6.18;;
50683;SDS011;36654;45.042;38.994;2022-09-09T07:11:21;13.43;;;6.18;;
50683;SDS011;36654;45.042;38.994;2022-09-09T07:13:48;11.77;;;6.05;;
50683;SDS011;36654;45.042;38.994;2022-09-09T07:16:15;15.88;;;7.55;;
50683;SDS011;36654;45.042;38.994;2022-09-09T07:18:42;16.55;;;8.10;;
50683;SDS011;36654;45.042;38.994;2022-09-09T07:21:10;15.85;;;7.18;;
50683;SDS011;36654;45.042;38.994;2022-09-09T07:23:40;14.90;;;7.60;;
50683;SDS011;36654;45.042;38.994;2022-09-09T07:26:14;15.05;;;8.52;;
50683;SDS011;36654;45.042;38.994;2022-09-09T07:28:42;15.13;;;6.93;;
50683;SDS011;36654;45.042;38.994;2022-09-09T07:31:29;13.20;;;6.60;;
50683;SDS011;36654;45.042;38.994;2022-09-09T07:33:59;12.48;;;6.90;;
50683;SDS011;36654;45.042;38.994;2022-09-09T07:36:27;13.70;;;5.95;;
50683;SDS011;36654;45.042;38.994;2022-09-09T07:38:58;13.52;;;5.30;;
50683;SDS011;36654;45.042;38.994;2022-09-09T07:41:31;12.50;;;5.60;;
50683;SDS011;36654;45.042;38.994;2022-09-09T07:43:59;11.05;;;6.00;;
50683;SDS011;36654;45.042;38.994;2022-09-09T07:46:28;11.93;;;5.68;;
50683;SDS011;36654;45.042;38.994;2022-09-09T07:48:55;10.95;;;5.97;;
50683;SDS011;36654;45.042;38.994;2022-09-09T07:51:25;13.43;;;6.18;;
50683;SDS011;36654;45.042;38.994;2022-09-09T07:53:55;13.25;;;6.43;;
50683;SDS011;36654;45.042;38.994;2022-09-09T07:56:25;12.10;;;6.00;;
50683;SDS011;36654;45.042;38.994;2022-09-09T07:58:53;16.45;;;6.85;;
50683;SDS011;36654;45.042;38.994;2022-09-09T08:01:22;10.27;;;5.70;;
50683;SDS011;36654;45.042;38.994;2022-09-09T08:03:57;13.68;;;6.05;;
50683;SDS011;36654;45.042;38.994;2022-09-09T08:06:25;13.82;;;6.47;;
50683;SDS011;36654;45.042;38.994;2022-09-09T08:08:52;12.85;;;5.90;;
50683;SDS011;36654;45.042;38.994;2022-09-09T08:11:20;12.55;;;6.05;;
50683;SDS011;36654;45.042;38.994;2022-09-09T08:13:48;14.70;;;6.15;;
50683;SDS011;36654;45.042;38.994;2022-09-09T08:16:16;15.50;;;6.47;;
50683;SDS011;36654;45.042;38.994;2022-09-09T08:18:44;12.73;;;5.97;;
50683;SDS011;36654;45.042;38.994;2022-09-09T08:21:11;12.50;;;5.63;;
50683;SDS011;36654;45.042;38.994;2022-09-09T08:23:41;16.67;;;6.30;;
50683;SDS011;36654;45.042;38.994;2022-09-09T08:26:17;13.95;;;5.25;;
50683;SDS011;36654;45.042;38.994;2022-09-09T08:28:46;9.45;;;4.40;;
50683;SDS011;36654;45.042;38.994;2022-09-09T08:31:16;9.05;;;4.18;;
50683;SDS011;36654;45.042;38.994;2022-09-09T08:33:46;11.37;;;3.63;;
50683;SDS011;36654;45.042;38.994;2022-09-09T08:36:18;6.22;;;3.08;;
50683;SDS011;36654;45.042;38.994;2022-09-09T08:38:50;11.50;;;3.15;;
50683;SDS011;36654;45.042;38.994;2022-09-09T08:57:58;12.20;;;3.40;;
50683;SDS011;36654;45.042;38.994;2022-09-09T09:06:50;7.63;;;2.80;;
50683;SDS011;36654;45.042;38.994;2022-09-09T09:11:56;7.40;;;2.53;;
50683;SDS011;36654;45.042;38.994;2022-09-09T09:14:28;7.43;;;3.17;;
50683;SDS011;36654;45.042;38.994;2022-09-09T09:19:29;8.90;;;3.25;;
50683;SDS011;36654;45.042;38.994;2022-09-09T09:24:54;7.93;;;2.80;;
50683;SDS011;36654;45.042;38.994;2022-09-09T09:30:20;8.27;;;2.78;;
50683;SDS011;36654;45.042;38.994;2022-09-09T09:32:53;9.23;;;2.88;;
50683;SDS011;36654;45.042;38.994;2022-09-09T09:35:22;10.25;;;3.10;;
50683;SDS011;36654;45.042;38.994;2022-09-09T09:37:49;7.95;;;3.00;;
50683;SDS011;36654;45.042;38.994;2022-09-09T09:40:18;6.75;;;2.80;;
50683;SDS011;36654;45.042;38.994;2022-09-09T09:45:16;8.98;;;2.97;;
50683;SDS011;36654;45.042;38.994;2022-09-09T09:47:58;5.45;;;2.60;;
50683;SDS011;36654;45.042;38.994;2022-09-09T09:50:25;6.85;;;2.88;;
50683;SDS011;36654;45.042;38.994;2022-09-09T09:52:54;7.50;;;2.83;;
50683;SDS011;36654;45.042;38.994;2022-09-09T09:55:26;8.23;;;3.10;;
50683;SDS011;36654;45.042;38.994;2022-09-09T09:58:00;6.65;;;2.97;;
50683;SDS011;36654;45.042;38.994;2022-09-09T10:00:27;6.43;;;2.63;;
50683;SDS011;36654;45.042;38.994;2022-09-09T10:02:52;6.05;;;2.60;;
50683;SDS011;36654;45.042;38.994;2022-09-09T10:05:20;7.80;;;2.80;;
50683;SDS011;36654;45.042;38.994;2022-09-09T10:08:12;6.60;;;2.80;;
50683;SDS011;36654;45.042;38.994;2022-09-09T10:19:05;6.15;;;2.90;;
50683;SDS011;36654;45.042;38.994;2022-09-09T10:27:15;10.38;;;3.08;;
50683;SDS011;36654;45.042;38.994;2022-09-09T10:32:46;8.90;;;3.03;;
50683;SDS011;36654;45.042;38.994;2022-09-09T10:54:37;14.15;;;3.60;;
50683;SDS011;36654;45.042;38.994;2022-09-09T10:57:39;11.75;;;3.58;;
50683;SDS011;36654;45.042;38.994;2022-09-09T11:03:00;8.25;;;2.88;;
50683;SDS011;36654;45.042;38.994;2022-09-09T11:05:31;11.30;;;5.75;;
50683;SDS011;36654;45.042;38.994;2022-09-09T11:08:09;7.93;;;3.20;;
50683;SDS011;36654;45.042;38.994;2022-09-09T11:13:24;8.75;;;3.15;;
50683;SDS011;36654;45.042;38.994;2022-09-09T11:15:58;6.30;;;2.85;;
50683;SDS011;36654;45.042;38.994;2022-09-09T11:18:38;7.90;;;2.90;;
50683;SDS011;36654;45.042;38.994;2022-09-09T11:21:08;7.53;;;3.40;;
50683;SDS011;36654;45.042;38.994;2022-09-09T11:23:47;7.53;;;3.33;;
50683;SDS011;36654;45.042;38.994;2022-09-09T11:26:24;8.77;;;3.22;;
50683;SDS011;36654;45.042;38.994;2022-09-09T11:29:06;7.57;;;2.92;;
50683;SDS011;36654;45.042;38.994;2022-09-09T11:41:45;9.30;;;3.40;;
50683;SDS011;36654;45.042;38.994;2022-09-09T11:44:11;13.65;;;4.25;;
50683;SDS011;36654;45.042;38.994;2022-09-09T11:46:41;12.85;;;5.32;;
50683;SDS011;36654;45.042;38.994;2022-09-09T11:49:30;13.57;;;4.80;;
50683;SDS011;36654;45.042;38.994;2022-09-09T11:53:02;10.98;;;4.57;;
50683;SDS011;36654;45.042;38.994;2022-09-09T11:55:10;13.15;;;5.03;;
50683;SDS011;36654;45.042;38.994;2022-09-09T11:58:37;12.27;;;5.13;;
50683;SDS011;36654;45.042;38.994;2022-09-09T12:00:41;10.48;;;5.15;;
50683;SDS011;36654;45.042;38.994;2022-09-09T12:05:59;11.93;;;5.93;;
50683;SDS011;36654;45.042;38.994;2022-09-09T12:08:36;12.60;;;5.75;;
50683;SDS011;36654;45.042;38.994;2022-09-09T12:11:07;13.32;;;6.05;;
50683;SDS011;36654;45.042;38.994;2022-09-09T12:13:32;9.05;;;5.35;;
50683;SDS011;36654;45.042;38.994;2022-09-09T12:15:59;9.70;;;6.40;;
50683;SDS011;36654;45.042;38.994;2022-09-09T12:24:09;9.23;;;6.38;;
50683;SDS011;36654;45.042;38.994;2022-09-09T12:26:47;14.90;;;7.32;;
50683;SDS011;36654;45.042;38.994;2022-09-09T12:29:27;13.88;;;7.80;;
50683;SDS011;36654;45.042;38.994;2022-09-09T12:39:55;12.77;;;7.15;;
50683;SDS011;36654;45.042;38.994;2022-09-09T12:42:22;13.05;;;7.05;;
50683;SDS011;36654;45.042;38.994;2022-09-09T12:44:50;15.23;;;6.97;;
50683;SDS011;36654;45.042;38.994;2022-09-09T12:47:19;10.45;;;5.75;;
50683;SDS011;36654;45.042;38.994;2022-09-09T12:50:22;9.95;;;6.25;;
50683;SDS011;36654;45.042;38.994;2022-09-09T12:55:22;10.77;;;4.95;;
50683;SDS011;36654;45.042;38.994;2022-09-09T12:57:52;9.60;;;5.15;;
50683;SDS011;36654;45.042;38.994;2022-09-09T13:00:20;12.23;;;5.53;;
50683;SDS011;36654;45.042;38.994;2022-09-09T13:02:52;9.55;;;5.70;;
50683;SDS011;36654;45.042;38.994;2022-09-09T13:05:23;12.23;;;5.20;;
50683;SDS011;36654;45.042;38.994;2022-09-09T13:08:11;11.70;;;5.10;;
50683;SDS011;36654;45.042;38.994;2022-09-09T13:10:44;9.15;;;4.82;;
50683;SDS011;36654;45.042;38.994;2022-09-09T13:16:04;8.90;;;3.83;;
50683;SDS011;36654;45.042;38.994;2022-09-09T13:18:34;8.73;;;3.80;;
50683;SDS011;36654;45.042;38.994;2022-09-09T13:21:03;9.65;;;3.88;;
50683;SDS011;36654;45.042;38.994;2022-09-09T13:23:33;8.38;;;3.50;;
50683;SDS011;36654;45.042;38.994;2022-09-09T13:26:01;10.85;;;4.72;;
50683;SDS011;36654;45.042;38.994;2022-09-09T13:28:46;10.55;;;4.63;;
50683;SDS011;36654;45.042;38.994;2022-09-09T13:33:54;8.55;;;3.70;;
50683;SDS011;36654;45.042;38.994;2022-09-09T13:36:30;9.70;;;4.00;;
50683;SDS011;36654;45.042;38.994;2022-09-09T13:38:59;8.60;;;3.58;;
50683;SDS011;36654;45.042;38.994;2022-09-09T13:44:01;11.93;;;4.90;;
50683;SDS011;36654;45.042;38.994;2022-09-09T13:46:31;9.73;;;3.58;;
50683;SDS011;36654;45.042;38.994;2022-09-09T13:54:05;10.32;;;3.70;;
50683;SDS011;36654;45.042;38.994;2022-09-09T13:56:34;7.53;;;3.45;;
50683;SDS011;36654;45.042;38.994;2022-09-09T13:59:02;10.38;;;3.63;;
50683;SDS011;36654;45.042;38.994;2022-09-09T14:01:29;8.43;;;4.35;;
50683;SDS011;36654;45.042;38.994;2022-09-09T14:03:55;11.93;;;3.85;;
50683;SDS011;36654;45.042;38.994;2022-09-09T14:06:21;11.27;;;4.22;;
50683;SDS011;36654;45.042;38.994;2022-09-09T14:08:49;13.65;;;4.20;;
50683;SDS011;36654;45.042;38.994;2022-09-09T14:11:16;8.40;;;3.47;;
50683;SDS011;36654;45.042;38.994;2022-09-09T14:13:42;12.95;;;3.60;;
50683;SDS011;36654;45.042;38.994;2022-09-09T14:16:08;8.65;;;3.90;;
50683;SDS011;36654;45.042;38.994;2022-09-09T14:18:34;9.50;;;3.70;;
50683;SDS011;36654;45.042;38.994;2022-09-09T14:21:00;11.13;;;4.13;;
50683;SDS011;36654;45.042;38.994;2022-09-09T14:23:28;7.63;;;4.15;;
50683;SDS011;36654;45.042;38.994;2022-09-09T14:25:54;9.55;;;4.10;;
50683;SDS011;36654;45.042;38.994;2022-09-09T14:28:20;9.25;;;4.25;;
50683;SDS011;36654;45.042;38.994;2022-09-09T14:30:47;10.25;;;4.60;;
50683;SDS011;36654;45.042;38.994;2022-09-09T14:33:13;13.02;;;5.35;;
50683;SDS011;36654;45.042;38.994;2022-09-09T14:35:41;11.85;;;4.75;;
50683;SDS011;36654;45.042;38.994;2022-09-09T14:38:08;10.88;;;4.60;;
50683;SDS011;36654;45.042;38.994;2022-09-09T14:40:34;7.35;;;3.65;;
50683;SDS011;36654;45.042;38.994;2022-09-09T14:43:01;11.25;;;4.65;;
50683;SDS011;36654;45.042;38.994;2022-09-09T14:45:27;11.70;;;3.90;;
50683;SDS011;36654;45.042;38.994;2022-09-09T14:47:53;9.75;;;3.97;;
50683;SDS011;36654;45.042;38.994;2022-09-09T14:50:19;9.32;;;4.20;;
50683;SDS011;36654;45.042;38.994;2022-09-09T14:52:45;10.65;;;3.85;;
50683;SDS011;36654;45.042;38.994;2022-09-09T14:55:12;14.07;;;4.57;;
50683;SDS011;36654;45.042;38.994;2022-09-09T14:57:38;11.02;;;4.30;;
50683;SDS011;36654;45.042;38.994;2022-09-09T15:00:05;9.52;;;4.00;;
50683;SDS011;36654;45.042;38.994;2022-09-09T15:02:34;12.82;;;3.80;;
50683;SDS011;36654;45.042;38.994;2022-09-09T15:05:00;11.73;;;4.22;;
50683;SDS011;36654;45.042;38.994;2022-09-09T15:07:26;11.68;;;4.25;;
50683;SDS011;36654;45.042;38.994;2022-09-09T15:09:53;11.60;;;4.13;;
50683;SDS011;36654;45.042;38.994;2022-09-09T15:12:19;10.45;;;3.90;;
50683;SDS011;36654;45.042;38.994;2022-09-09T15:14:45;9.52;;;3.90;;
50683;SDS011;36654;45.042;38.994;2022-09-09T15:17:11;11.88;;;4.60;;
50683;SDS011;36654;45.042;38.994;2022-09-09T15:19:37;10.00;;;3.85;;
50683;SDS011;36654;45.042;38.994;2022-09-09T15:22:03;8.05;;;3.75;;
50683;SDS011;36654;45.042;38.994;2022-09-09T15:24:33;10.38;;;3.85;;
50683;SDS011;36654;45.042;38.994;2022-09-09T15:26:59;15.82;;;4.22;;
50683;SDS011;36654;45.042;38.994;2022-09-09T15:29:25;10.98;;;3.80;;
50683;SDS011;36654;45.042;38.994;2022-09-09T15:31:52;10.55;;;4.28;;
50683;SDS011;36654;45.042;38.994;2022-09-09T15:34:20;12.68;;;4.57;;
50683;SDS011;36654;45.042;38.994;2022-09-09T15:36:46;8.45;;;4.20;;
50683;SDS011;36654;45.042;38.994;2022-09-09T15:39:13;10.35;;;3.95;;
50683;SDS011;36654;45.042;38.994;2022-09-09T15:41:41;13.40;;;4.60;;
50683;SDS011;36654;45.042;38.994;2022-09-09T15:44:08;12.18;;;4.65;;
50683;SDS011;36654;45.042;38.994;2022-09-09T15:46:50;12.63;;;5.50;;
50683;SDS011;36654;45.042;38.994;2022-09-09T15:49:25;16.67;;;7.68;;
50683;SDS011;36654;45.042;38.994;2022-09-09T15:51:55;12.15;;;7.35;;
50683;SDS011;36654;45.042;38.994;2022-09-09T15:54:23;11.65;;;4.85;;
50683;SDS011;36654;45.042;38.994;2022-09-09T15:56:51;15.88;;;4.90;;
50683;SDS011;36654;45.042;38.994;2022-09-09T15:59:20;13.95;;;5.22;;
50683;SDS011;36654;45.042;38.994;2022-09-09T16:01:47;17.13;;;5.40;;
50683;SDS011;36654;45.042;38.994;2022-09-09T16:04:16;13.80;;;5.35;;
50683;SDS011;36654;45.042;38.994;2022-09-09T16:06:58;14.35;;;5.70;;
50683;SDS011;36654;45.042;38.994;2022-09-09T16:11:51;21.95;;;5.85;;
50683;SDS011;36654;45.042;38.994;2022-09-09T16:14:19;18.95;;;5.55;;
50683;SDS011;36654;45.042;38.994;2022-09-09T16:16:44;23.45;;;6.60;;
50683;SDS011;36654;45.042;38.994;2022-09-09T16:19:11;18.02;;;6.43;;
50683;SDS011;36654;45.042;38.994;2022-09-09T16:21:42;20.17;;;7.25;;
50683;SDS011;36654;45.042;38.994;2022-09-09T16:24:10;14.90;;;5.63;;
50683;SDS011;36654;45.042;38.994;2022-09-09T16:26:40;15.68;;;5.65;;
50683;SDS011;36654;45.042;38.994;2022-09-09T16:29:10;15.43;;;5.95;;
50683;SDS011;36654;45.042;38.994;2022-09-09T16:31:36;13.00;;;5.88;;
50683;SDS011;36654;45.042;38.994;2022-09-09T16:34:02;17.00;;;5.55;;
50683;SDS011;36654;45.042;38.994;2022-09-09T16:36:29;19.85;;;6.53;;
50683;SDS011;36654;45.042;38.994;2022-09-09T16:38:58;20.30;;;5.95;;
50683;SDS011;36654;45.042;38.994;2022-09-09T16:41:25;19.27;;;6.72;;
50683;SDS011;36654;45.042;38.994;2022-09-09T16:43:56;12.27;;;5.85;;
50683;SDS011;36654;45.042;38.994;2022-09-09T16:46:24;13.30;;;5.95;;
50683;SDS011;36654;45.042;38.994;2022-09-09T16:48:50;19.52;;;6.57;;
50683;SDS011;36654;45.042;38.994;2022-09-09T16:51:18;13.40;;;5.47;;
50683;SDS011;36654;45.042;38.994;2022-09-09T16:53:50;15.95;;;5.63;;
50683;SDS011;36654;45.042;38.994;2022-09-09T16:56:17;13.32;;;4.97;;
50683;SDS011;36654;45.042;38.994;2022-09-09T16:58:54;15.98;;;6.57;;
50683;SDS011;36654;45.042;38.994;2022-09-09T17:01:28;16.37;;;5.60;;
50683;SDS011;36654;45.042;38.994;2022-09-09T17:03:57;15.23;;;5.82;;
50683;SDS011;36654;45.042;38.994;2022-09-09T17:06:23;15.68;;;6.68;;
50683;SDS011;36654;45.042;38.994;2022-09-09T17:08:59;12.45;;;5.70;;
50683;SDS011;36654;45.042;38.994;2022-09-09T17:11:27;21.10;;;6.30;;
50683;SDS011;36654;45.042;38.994;2022-09-09T17:13:54;19.80;;;8.88;;
50683;SDS011;36654;45.042;38.994;2022-09-09T17:16:21;19.30;;;7.72;;
50683;SDS011;36654;45.042;38.994;2022-09-09T17:18:48;18.77;;;7.68;;
50683;SDS011;36654;45.042;38.994;2022-09-09T17:21:16;17.15;;;8.02;;
50683;SDS011;36654;45.042;38.994;2022-09-09T17:23:44;20.05;;;8.73;;
50683;SDS011;36654;45.042;38.994;2022-09-09T17:26:11;16.55;;;7.10;;
50683;SDS011;36654;45.042;38.994;2022-09-09T17:28:39;14.48;;;6.10;;
50683;SDS011;36654;45.042;38.994;2022-09-09T17:31:07;14.63;;;7.22;;
50683;SDS011;36654;45.042;38.994;2022-09-09T17:33:34;17.33;;;6.22;;
50683;SDS011;36654;45.042;38.994;2022-09-09T17:36:07;18.63;;;7.18;;